This is the latest recevied weather packets stored in our database for station/object KD0SBN. If no packets are shown the sender has not sent any weather packets the latest 10 day(s).
| Time | Temp. | Humidity | Pressure | Rain* | Wind** | Luminosity | Snow |
|---|---|---|---|---|---|---|---|
| 1777655231 | 12.78° C | 53% | 1021.3 hPa | 0 mm | - | - | - |
| 1777654928 | 12.78° C | 53% | 1021.3 hPa | 0 mm | - | - | - |
| 1777654625 | 12.78° C | 53% | 1021.3 hPa | 0 mm | - | - | - |
| 1777654322 | 12.22° C | 55% | 1021.4 hPa | 0 mm | - | - | - |
| 1777654020 | 13.33° C | 54% | 1021.3 hPa | 0 mm | - | - | - |
| 1777653717 | 12.22° C | 54% | 1021.2 hPa | 0 mm | - | - | - |
| 1777653413 | 12.78° C | 53% | 1021.3 hPa | 0 mm | - | - | - |
| 1777653110 | 12.22° C | 54% | 1021.2 hPa | 0 mm | - | - | - |
| 1777652806 | 11.67° C | 57% | 1021.4 hPa | 0 mm | - | - | - |
| 1777652503 | 12.22° C | 57% | 1021.2 hPa | 0 mm | - | - | - |
| 1777652200 | 11.67° C | 59% | 1021.3 hPa | 0 mm | - | - | - |
| 1777651898 | 11.11° C | 61% | 1021.3 hPa | 0 mm | - | - | - |
| 1777651594 | 11.67° C | 63% | 1021.1 hPa | 0 mm | - | - | - |
| 1777651291 | 10.56° C | 65% | 1021 hPa | 0 mm | - | - | - |
| 1777650988 | 11.67° C | 64% | 1021.2 hPa | 0 mm | - | - | - |
| 1777650685 | 11.67° C | 62% | 1021.3 hPa | 0 mm | - | - | - |
| 1777650382 | 11.67° C | 63% | 1021.2 hPa | 0 mm | - | - | - |
| 1777650079 | 11.67° C | 65% | 1021.1 hPa | 0 mm | - | - | - |
| 1777649776 | 10.56° C | 67% | 1021.1 hPa | 0 mm | - | - | - |
| 1777649473 | 10.56° C | 65% | 1021.3 hPa | 0 mm | - | - | - |
| 1777649170 | 10° C | 69% | 1020.8 hPa | 0 mm | - | - | - |
| 1777648867 | 10° C | 68% | 1021 hPa | 0 mm | - | - | - |
| 1777648261 | 10.56° C | 69% | 1021.2 hPa | 0 mm | - | - | - |
| 1777647956 | 11.67° C | 67% | 1021.1 hPa | 0 mm | - | - | - |
| 1777647653 | 10.56° C | 72% | 1021.1 hPa | 0 mm | - | - | - |
* Rain latest hour (hover to see other rain measurements)
** Current wind speed in m/s (hover to see current wind gust speed)